createdAt,value
2019-03-27T00:01:08.740Z,3.70
2019-03-27T00:02:15.542Z,3.60
2019-03-27T00:03:20.636Z,3.60
2019-03-27T00:04:27.025Z,3.60
2019-03-27T00:05:32.135Z,3.60
2019-03-27T00:06:37.243Z,3.60
2019-03-27T00:07:42.375Z,3.60
2019-03-27T00:08:47.479Z,3.60
2019-03-27T00:09:52.623Z,3.60
2019-03-27T00:10:57.755Z,3.60
2019-03-27T00:12:02.928Z,3.60
2019-03-27T00:13:08.013Z,3.60
2019-03-27T00:14:13.148Z,3.60
2019-03-27T00:15:18.352Z,3.60
2019-03-27T00:16:23.564Z,3.60
2019-03-27T00:17:28.766Z,3.60
2019-03-27T00:18:33.937Z,3.60
2019-03-27T00:19:39.099Z,3.60
2019-03-27T00:20:44.472Z,3.50
2019-03-27T00:21:49.589Z,3.60
2019-03-27T00:22:54.778Z,3.50
2019-03-27T00:23:59.912Z,3.60
2019-03-27T00:25:06.155Z,3.60
2019-03-27T00:26:11.340Z,3.60
2019-03-27T00:27:16.512Z,3.60
2019-03-27T00:28:21.615Z,3.60
2019-03-27T00:29:26.739Z,3.70
2019-03-27T00:30:31.938Z,3.70
2019-03-27T00:31:37.067Z,3.70
2019-03-27T00:32:42.192Z,3.70
2019-03-27T00:33:47.383Z,3.80
2019-03-27T00:34:52.567Z,3.80
2019-03-27T00:35:57.736Z,3.80
2019-03-27T00:37:02.908Z,3.80
2019-03-27T00:38:08.077Z,3.80
2019-03-27T00:39:13.175Z,3.90
2019-03-27T00:40:18.467Z,3.90
2019-03-27T00:41:23.546Z,3.80
2019-03-27T00:42:28.766Z,3.90
2019-03-27T00:43:33.902Z,3.90
2019-03-27T00:44:39.160Z,3.90
2019-03-27T00:45:44.273Z,3.90
2019-03-27T00:46:49.395Z,3.90
2019-03-27T00:47:54.595Z,3.90
2019-03-27T00:48:59.708Z,3.90
2019-03-27T00:50:05.491Z,4.00
2019-03-27T00:51:10.648Z,4.10
2019-03-27T00:52:15.821Z,4.10
2019-03-27T00:53:21.892Z,4.10
2019-03-27T00:54:26.987Z,4.20
2019-03-27T00:55:32.080Z,4.20
2019-03-27T00:56:37.250Z,4.20
2019-03-27T00:57:42.375Z,4.30
2019-03-27T00:58:47.510Z,4.30
2019-03-27T00:59:53.765Z,4.30
2019-03-27T01:01:12.488Z,4.30
2019-03-27T01:02:18.568Z,4.30
2019-03-27T01:03:24.687Z,4.30
2019-03-27T01:04:29.984Z,4.30
2019-03-27T01:05:35.047Z,4.20
2019-03-27T01:06:40.306Z,4.20
2019-03-27T01:07:45.454Z,4.30
2019-03-27T01:08:50.662Z,4.40
2019-03-27T01:09:55.771Z,4.40
2019-03-27T01:11:00.958Z,4.30
2019-03-27T01:12:06.122Z,4.40
2019-03-27T01:13:11.263Z,4.40
2019-03-27T01:14:16.356Z,4.30
2019-03-27T01:15:21.541Z,4.30
2019-03-27T01:16:27.577Z,4.40
2019-03-27T01:17:32.750Z,4.40
2019-03-27T01:18:38.908Z,4.40
2019-03-27T01:19:43.987Z,4.40
2019-03-27T01:20:49.171Z,4.40
2019-03-27T01:21:54.318Z,4.40
2019-03-27T01:22:59.495Z,4.40
2019-03-27T01:24:07.379Z,4.40
2019-03-27T01:25:12.673Z,4.50
2019-03-27T01:26:17.783Z,4.50
2019-03-27T01:27:22.912Z,4.50
2019-03-27T01:28:28.088Z,4.50
2019-03-27T01:29:33.354Z,4.60
2019-03-27T01:30:38.477Z,4.60
2019-03-27T01:31:43.617Z,4.60
2019-03-27T01:32:48.740Z,4.60
2019-03-27T01:33:53.869Z,4.50
2019-03-27T01:34:59.021Z,4.50
2019-03-27T01:36:04.195Z,4.40
2019-03-27T01:37:09.307Z,4.40
2019-03-27T01:38:14.449Z,4.40
2019-03-27T01:39:19.642Z,4.40
2019-03-27T01:40:24.782Z,4.30
2019-03-27T01:41:29.887Z,4.30
2019-03-27T01:42:35.981Z,4.30
2019-03-27T01:43:41.064Z,4.30
2019-03-27T01:44:46.177Z,4.30
2019-03-27T01:45:53.331Z,4.30
2019-03-27T01:46:58.757Z,4.30
2019-03-27T01:48:03.899Z,4.30
2019-03-27T01:49:10.018Z,4.30
2019-03-27T01:50:15.129Z,4.30
2019-03-27T01:51:20.378Z,4.30
2019-03-27T01:52:25.531Z,4.30
2019-03-27T01:53:30.645Z,4.30
2019-03-27T01:54:35.736Z,4.30
2019-03-27T01:55:40.855Z,4.30
2019-03-27T01:56:45.982Z,4.20
2019-03-27T01:57:51.161Z,4.20
2019-03-27T01:58:56.275Z,4.20
2019-03-27T02:00:01.475Z,4.20
2019-03-27T02:01:06.745Z,4.10
2019-03-27T02:02:11.916Z,4.10
2019-03-27T02:03:17.991Z,4.10
2019-03-27T02:04:23.177Z,4.10
2019-03-27T02:05:28.271Z,4.00
2019-03-27T02:06:33.379Z,4.00
2019-03-27T02:07:38.479Z,3.90
2019-03-27T02:08:43.603Z,4.00
2019-03-27T02:09:48.707Z,3.90
2019-03-27T02:10:53.798Z,3.90
2019-03-27T02:11:58.907Z,3.90
2019-03-27T02:13:04.109Z,3.90
2019-03-27T02:14:09.253Z,3.80
2019-03-27T02:15:14.572Z,3.80
2019-03-27T02:16:19.673Z,3.80
2019-03-27T02:17:24.848Z,3.70
2019-03-27T02:18:29.989Z,3.70
2019-03-27T02:19:35.142Z,3.70
2019-03-27T02:20:40.261Z,3.80
2019-03-27T02:21:45.391Z,3.80
2019-03-27T02:22:50.494Z,3.80
2019-03-27T02:23:55.664Z,3.80
2019-03-27T02:25:00.791Z,3.80
2019-03-27T02:26:05.954Z,3.90
2019-03-27T02:27:11.246Z,3.90
2019-03-27T02:28:16.407Z,3.90
2019-03-27T02:29:21.638Z,4.00
2019-03-27T02:30:26.773Z,4.00
2019-03-27T02:31:31.975Z,4.00
2019-03-27T02:32:37.161Z,4.10
2019-03-27T02:33:42.243Z,4.10
2019-03-27T02:34:47.485Z,4.10
2019-03-27T02:35:52.603Z,4.20
2019-03-27T02:36:57.921Z,4.20
2019-03-27T02:38:03.118Z,4.10
2019-03-27T02:39:08.516Z,4.10
2019-03-27T02:40:13.680Z,4.10
2019-03-27T02:41:18.793Z,4.10
2019-03-27T02:42:24.987Z,4.10
2019-03-27T02:43:30.133Z,4.10
2019-03-27T02:44:35.266Z,4.10
2019-03-27T02:45:40.501Z,4.10
2019-03-27T02:46:45.615Z,4.00
2019-03-27T02:47:50.734Z,4.00
2019-03-27T02:48:55.960Z,4.00
2019-03-27T02:50:01.297Z,3.90
2019-03-27T02:51:06.508Z,3.90
2019-03-27T02:52:11.760Z,3.90
2019-03-27T02:53:16.875Z,3.90
2019-03-27T02:54:22.198Z,3.90
2019-03-27T02:55:27.375Z,3.90
2019-03-27T02:56:33.519Z,3.80
2019-03-27T02:57:38.668Z,3.80
2019-03-27T02:58:43.903Z,3.80
2019-03-27T02:59:48.993Z,3.80
2019-03-27T03:00:54.261Z,3.80
2019-03-27T03:02:00.365Z,3.70
2019-03-27T03:03:05.585Z,3.70
2019-03-27T03:04:10.811Z,3.70
2019-03-27T03:05:16.074Z,3.60
2019-03-27T03:06:21.352Z,3.60
2019-03-27T03:07:26.494Z,3.60
2019-03-27T03:08:32.624Z,3.60
2019-03-27T03:09:37.758Z,3.60
2019-03-27T03:10:45.527Z,3.60
2019-03-27T03:11:49.712Z,3.70
2019-03-27T03:12:54.807Z,3.70
2019-03-27T03:14:00.033Z,3.70
2019-03-27T03:15:06.264Z,3.70
2019-03-27T03:16:11.432Z,3.70
2019-03-27T03:17:16.545Z,3.80
2019-03-27T03:18:21.728Z,3.80
2019-03-27T03:19:26.897Z,3.80
2019-03-27T03:20:32.017Z,3.90
2019-03-27T03:21:37.135Z,3.90
2019-03-27T03:22:42.406Z,3.90
2019-03-27T03:23:47.566Z,3.90
2019-03-27T03:24:52.677Z,4.00
2019-03-27T03:25:57.749Z,4.00
2019-03-27T03:27:03.134Z,4.00
2019-03-27T03:28:08.344Z,4.00
2019-03-27T03:29:13.494Z,4.10
2019-03-27T03:30:18.700Z,4.10
2019-03-27T03:31:23.904Z,4.10
2019-03-27T03:32:29.131Z,4.20
2019-03-27T03:33:34.382Z,4.20
2019-03-27T03:34:39.574Z,4.20
2019-03-27T03:35:44.727Z,4.20
2019-03-27T03:36:49.947Z,4.20
2019-03-27T03:37:55.126Z,4.20
2019-03-27T03:39:00.271Z,4.30
2019-03-27T03:40:05.922Z,4.30
2019-03-27T03:41:11.120Z,4.30
2019-03-27T03:42:16.229Z,4.30
2019-03-27T03:43:21.354Z,4.40
2019-03-27T03:44:26.540Z,4.40
2019-03-27T03:45:31.707Z,4.40
2019-03-27T03:46:36.840Z,4.40
2019-03-27T03:47:42.071Z,4.40
2019-03-27T03:48:47.190Z,4.40
2019-03-27T03:49:52.469Z,4.40
2019-03-27T03:51:00.028Z,4.50
2019-03-27T03:52:05.546Z,4.50
2019-03-27T03:53:12.908Z,4.50
2019-03-27T03:54:18.914Z,4.50
2019-03-27T03:55:24.508Z,4.50
2019-03-27T03:56:32.129Z,4.50
2019-03-27T03:57:38.276Z,4.60
2019-03-27T03:58:44.429Z,4.50
2019-03-27T03:59:51.103Z,4.60
2019-03-27T04:00:56.748Z,4.60
2019-03-27T04:02:04.600Z,4.60
2019-03-27T04:03:10.164Z,4.60
2019-03-27T04:04:15.878Z,4.60
2019-03-27T04:05:22.463Z,4.70
2019-03-27T04:06:27.589Z,4.70
2019-03-27T04:07:32.831Z,4.80
2019-03-27T04:08:37.938Z,4.80
2019-03-27T04:09:43.139Z,4.80
2019-03-27T04:10:48.316Z,4.80
2019-03-27T04:11:53.513Z,4.80
2019-03-27T04:12:58.632Z,4.80
2019-03-27T04:14:04.023Z,4.80
2019-03-27T04:15:09.276Z,4.80
2019-03-27T04:16:14.402Z,4.80
2019-03-27T04:17:19.504Z,4.90
2019-03-27T04:18:24.704Z,4.90
2019-03-27T04:19:29.849Z,4.90
2019-03-27T04:20:35.002Z,4.90
2019-03-27T04:21:40.135Z,4.90
2019-03-27T04:22:45.434Z,4.90
2019-03-27T04:23:50.579Z,4.90
2019-03-27T04:24:55.663Z,4.90
2019-03-27T04:26:09.578Z,5.00
2019-03-27T04:27:07.665Z,5.00
2019-03-27T04:28:12.776Z,5.00
2019-03-27T04:29:17.919Z,5.00
2019-03-27T04:30:23.085Z,5.00
2019-03-27T04:31:28.286Z,5.00
2019-03-27T04:32:33.474Z,5.10
2019-03-27T04:33:38.631Z,5.10
2019-03-27T04:34:46.945Z,5.00
2019-03-27T04:35:50.637Z,5.10
2019-03-27T04:36:55.802Z,5.10
2019-03-27T04:38:00.968Z,5.10
2019-03-27T04:39:06.576Z,5.10
2019-03-27T04:40:11.798Z,5.10
2019-03-27T04:41:16.966Z,5.20
2019-03-27T04:42:22.124Z,5.20
2019-03-27T04:43:27.335Z,5.20
2019-03-27T04:44:32.532Z,5.20
2019-03-27T04:45:37.665Z,5.20
2019-03-27T04:46:42.812Z,5.10
2019-03-27T04:47:47.999Z,5.10
2019-03-27T04:48:53.141Z,5.20
2019-03-27T04:49:58.372Z,5.20
2019-03-27T04:51:03.562Z,5.20
2019-03-27T04:52:08.669Z,5.30
2019-03-27T04:53:13.804Z,5.20
2019-03-27T04:54:19.978Z,5.20
2019-03-27T04:55:25.124Z,5.20
2019-03-27T04:56:30.286Z,5.20
2019-03-27T04:57:35.390Z,5.20
2019-03-27T04:58:40.565Z,5.20
2019-03-27T04:59:45.665Z,5.20
2019-03-27T05:00:50.892Z,5.20
2019-03-27T05:01:56.019Z,5.30
2019-03-27T05:03:01.123Z,5.30
2019-03-27T05:04:07.589Z,5.30
2019-03-27T05:05:12.887Z,5.30
2019-03-27T05:06:18.976Z,5.30
2019-03-27T05:07:24.117Z,5.30
2019-03-27T05:08:29.299Z,5.30
2019-03-27T05:09:34.403Z,5.30
2019-03-27T05:10:39.533Z,5.40
2019-03-27T05:11:44.674Z,5.40
2019-03-27T05:12:49.871Z,5.40
2019-03-27T05:13:55.227Z,5.50
2019-03-27T05:15:00.507Z,5.50
2019-03-27T05:16:05.742Z,5.50
2019-03-27T05:17:10.880Z,5.60
2019-03-27T05:18:15.993Z,5.60
2019-03-27T05:19:21.129Z,5.70
2019-03-27T05:20:28.677Z,5.70
2019-03-27T05:21:33.128Z,5.80
2019-03-27T05:22:38.473Z,5.80
2019-03-27T05:23:43.625Z,5.90
2019-03-27T05:24:48.822Z,5.90
2019-03-27T05:25:54.019Z,6.00
2019-03-27T05:26:59.139Z,6.00
2019-03-27T05:28:04.358Z,6.00
2019-03-27T05:29:09.484Z,6.00
2019-03-27T05:30:17.945Z,6.00
2019-03-27T05:31:23.082Z,6.00
2019-03-27T05:32:28.231Z,6.00
2019-03-27T05:33:33.336Z,6.00
2019-03-27T05:34:38.460Z,6.00
2019-03-27T05:35:43.670Z,6.00
2019-03-27T05:36:48.827Z,6.10
2019-03-27T05:37:53.911Z,6.10
2019-03-27T05:38:59.040Z,6.20
2019-03-27T05:40:04.663Z,6.20
2019-03-27T05:41:09.806Z,6.20
2019-03-27T05:42:15.019Z,6.20
2019-03-27T05:43:20.372Z,6.20
2019-03-27T05:44:25.499Z,6.20
2019-03-27T05:45:30.648Z,6.20
2019-03-27T05:46:35.782Z,6.20
2019-03-27T05:47:40.897Z,6.20
2019-03-27T05:48:46.033Z,6.20
2019-03-27T05:49:51.194Z,6.20
2019-03-27T05:50:56.343Z,6.30
2019-03-27T05:52:01.621Z,6.30
2019-03-27T05:53:06.751Z,6.30
2019-03-27T05:54:11.877Z,6.30
2019-03-27T05:55:17.067Z,6.40
2019-03-27T05:56:22.284Z,6.40
2019-03-27T05:57:27.438Z,6.40
2019-03-27T05:58:32.744Z,6.30
2019-03-27T05:59:37.888Z,6.30
2019-03-27T06:00:43.148Z,6.40
2019-03-27T06:01:48.479Z,6.40
2019-03-27T06:02:53.598Z,6.40
2019-03-27T06:03:58.999Z,6.40
2019-03-27T06:05:04.496Z,6.40
2019-03-27T06:06:09.648Z,6.50
2019-03-27T06:07:14.783Z,6.50
2019-03-27T06:08:20.023Z,6.50
2019-03-27T06:09:25.294Z,6.50
2019-03-27T06:10:30.420Z,6.50
2019-03-27T06:11:35.695Z,6.50
2019-03-27T06:12:40.965Z,6.50
2019-03-27T06:13:46.752Z,6.50
2019-03-27T06:14:51.901Z,6.50
2019-03-27T06:15:57.035Z,6.50
2019-03-27T06:17:02.169Z,6.60
2019-03-27T06:18:13.063Z,6.50
2019-03-27T06:19:14.144Z,6.50
2019-03-27T06:20:19.252Z,6.50
2019-03-27T06:21:24.564Z,6.50
2019-03-27T06:22:29.895Z,6.50
2019-03-27T06:23:34.996Z,6.50
2019-03-27T06:24:40.476Z,6.40
2019-03-27T06:25:45.676Z,6.50
2019-03-27T06:26:51.652Z,6.50
2019-03-27T06:27:57.264Z,6.50
2019-03-27T06:29:02.437Z,6.50
2019-03-27T06:30:08.698Z,6.50
2019-03-27T06:31:13.955Z,6.50
2019-03-27T06:32:19.128Z,6.50
2019-03-27T06:33:24.316Z,6.50
2019-03-27T06:34:29.528Z,6.50
2019-03-27T06:35:34.749Z,6.50
2019-03-27T06:36:39.861Z,6.60
2019-03-27T06:37:45.006Z,6.60
2019-03-27T06:38:50.163Z,6.60
2019-03-27T06:39:55.418Z,6.60
2019-03-27T06:41:00.698Z,6.60
2019-03-27T06:42:05.924Z,6.70
2019-03-27T06:43:11.151Z,6.60
2019-03-27T06:44:16.328Z,6.60
2019-03-27T06:45:21.471Z,6.60
2019-03-27T06:46:26.634Z,6.80
2019-03-27T06:47:31.816Z,6.90
2019-03-27T06:48:37.436Z,7.00
2019-03-27T06:49:42.577Z,7.10
2019-03-27T06:50:47.732Z,7.00
2019-03-27T06:51:52.935Z,7.00
2019-03-27T06:52:58.102Z,7.10
2019-03-27T06:54:03.271Z,7.10
2019-03-27T06:55:08.793Z,7.10
2019-03-27T06:56:13.943Z,7.10
2019-03-27T06:57:19.181Z,7.10
2019-03-27T06:58:24.360Z,7.20
2019-03-27T06:59:29.464Z,7.20
2019-03-27T07:00:38.350Z,7.10
2019-03-27T07:01:43.645Z,7.10
2019-03-27T07:02:48.840Z,7.10
2019-03-27T07:03:54.003Z,7.10
2019-03-27T07:04:59.128Z,7.10
2019-03-27T07:06:04.377Z,7.10
2019-03-27T07:07:09.515Z,7.10
2019-03-27T07:08:14.690Z,7.10
2019-03-27T07:09:19.996Z,7.20
2019-03-27T07:10:25.199Z,7.20
2019-03-27T07:11:30.383Z,7.20
2019-03-27T07:12:35.573Z,7.20
2019-03-27T07:13:40.736Z,7.30
2019-03-27T07:14:45.847Z,7.20
2019-03-27T07:15:52.112Z,7.20
2019-03-27T07:16:57.232Z,7.20
2019-03-27T07:18:02.487Z,7.20
2019-03-27T07:19:07.650Z,7.20
2019-03-27T07:20:12.978Z,7.20
2019-03-27T07:21:18.179Z,7.10
2019-03-27T07:22:23.380Z,7.10
2019-03-27T07:23:28.536Z,7.10
2019-03-27T07:24:33.660Z,7.10
2019-03-27T07:25:38.800Z,7.10
2019-03-27T07:26:44.029Z,7.10
2019-03-27T07:27:49.168Z,7.10
2019-03-27T07:28:54.326Z,7.20
2019-03-27T07:29:59.461Z,7.20
2019-03-27T07:31:04.585Z,7.20
2019-03-27T07:32:09.743Z,7.30
2019-03-27T07:33:15.964Z,7.30
2019-03-27T07:34:21.245Z,7.30
2019-03-27T07:35:26.385Z,7.30
2019-03-27T07:36:31.529Z,7.30
2019-03-27T07:37:36.618Z,7.30
2019-03-27T07:38:41.777Z,7.40
2019-03-27T07:39:46.979Z,7.40
2019-03-27T07:40:52.123Z,7.40
2019-03-27T07:41:57.252Z,7.40
2019-03-27T07:43:02.572Z,7.40
2019-03-27T07:44:07.697Z,7.50
2019-03-27T07:45:13.154Z,7.50
2019-03-27T07:46:18.374Z,7.50
2019-03-27T07:47:23.651Z,7.50
2019-03-27T07:48:28.969Z,7.60
2019-03-27T07:49:34.240Z,7.60
2019-03-27T07:50:39.608Z,7.60
2019-03-27T07:51:44.836Z,7.60
2019-03-27T07:52:50.101Z,7.60
2019-03-27T07:53:55.233Z,7.70
2019-03-27T07:55:00.447Z,7.70
2019-03-27T07:56:05.672Z,7.70
2019-03-27T07:57:10.840Z,7.70
2019-03-27T07:58:16.055Z,7.70
2019-03-27T07:59:21.596Z,7.70
2019-03-27T08:00:26.855Z,7.80
2019-03-27T08:01:32.025Z,7.80
2019-03-27T08:02:38.153Z,7.90
2019-03-27T08:03:43.427Z,7.90
2019-03-27T08:04:48.634Z,7.90
2019-03-27T08:05:53.761Z,8.00
2019-03-27T08:07:00.012Z,8.00
2019-03-27T08:08:05.268Z,8.00
2019-03-27T08:09:10.430Z,8.10
2019-03-27T08:10:15.772Z,8.10
2019-03-27T08:11:21.123Z,8.20
2019-03-27T08:12:26.405Z,8.20
2019-03-27T08:13:31.501Z,8.20
2019-03-27T08:14:36.667Z,8.30
2019-03-27T08:15:41.823Z,8.40
2019-03-27T08:16:46.939Z,8.50
2019-03-27T08:17:52.064Z,8.60
2019-03-27T08:19:06.896Z,8.70
2019-03-27T08:20:05.655Z,8.70
2019-03-27T08:21:10.786Z,8.70
2019-03-27T08:22:15.990Z,8.60
2019-03-27T08:23:21.280Z,8.60
2019-03-27T08:24:26.469Z,8.50
2019-03-27T08:25:31.580Z,8.50
2019-03-27T08:26:36.805Z,8.50
2019-03-27T08:27:41.996Z,8.50
2019-03-27T08:28:47.149Z,8.60
2019-03-27T08:29:53.345Z,8.70
2019-03-27T08:30:58.607Z,8.80
2019-03-27T08:32:03.933Z,8.90
2019-03-27T08:33:09.056Z,9.00
2019-03-27T08:34:14.252Z,9.10
2019-03-27T08:35:19.403Z,9.10
2019-03-27T08:36:25.685Z,9.20
2019-03-27T08:37:30.871Z,9.20
2019-03-27T08:38:36.061Z,9.10
2019-03-27T08:39:41.167Z,9.10
2019-03-27T08:40:46.408Z,9.10
2019-03-27T08:41:51.528Z,9.10
2019-03-27T08:42:56.720Z,9.00
2019-03-27T08:44:01.896Z,8.90
2019-03-27T08:45:07.996Z,8.80
2019-03-27T08:46:13.162Z,8.80
2019-03-27T08:47:18.479Z,8.80
2019-03-27T08:48:23.639Z,8.80
2019-03-27T08:49:28.880Z,8.80
2019-03-27T08:50:34.044Z,8.80
2019-03-27T08:51:39.302Z,8.80
2019-03-27T08:52:44.500Z,8.90
2019-03-27T08:53:49.643Z,8.90
2019-03-27T08:54:54.767Z,8.90
2019-03-27T08:55:59.894Z,8.90
2019-03-27T08:57:05.227Z,8.90
2019-03-27T08:58:10.360Z,9.00
2019-03-27T08:59:15.599Z,9.00
2019-03-27T09:00:28.933Z,9.00
2019-03-27T09:01:34.234Z,9.10
2019-03-27T09:02:39.408Z,9.10
2019-03-27T09:03:44.576Z,9.20
2019-03-27T09:04:49.753Z,9.20
2019-03-27T09:05:54.893Z,9.10
2019-03-27T09:07:00.044Z,9.10
2019-03-27T09:08:05.193Z,9.10
2019-03-27T09:09:10.435Z,9.10
2019-03-27T09:10:15.983Z,9.00
2019-03-27T09:11:21.210Z,9.00
2019-03-27T09:12:26.348Z,9.00
2019-03-27T09:13:31.577Z,8.90
2019-03-27T09:14:36.686Z,9.00
2019-03-27T09:15:41.941Z,9.00
2019-03-27T09:16:47.076Z,8.90
2019-03-27T09:17:52.202Z,8.90
2019-03-27T09:18:57.390Z,8.80
2019-03-27T09:20:02.562Z,8.70
2019-03-27T09:21:07.776Z,8.70
2019-03-27T09:22:12.913Z,8.70
2019-03-27T09:23:18.131Z,8.70
2019-03-27T09:24:23.371Z,8.70
2019-03-27T09:25:28.502Z,8.70
2019-03-27T09:26:33.658Z,8.70
2019-03-27T09:27:38.788Z,8.80
2019-03-27T09:28:45.067Z,8.80
2019-03-27T09:29:50.271Z,8.80
2019-03-27T09:30:55.500Z,8.80
2019-03-27T09:32:00.758Z,8.80
2019-03-27T09:33:05.908Z,8.80
2019-03-27T09:34:11.151Z,8.80
2019-03-27T09:35:16.284Z,8.80
2019-03-27T09:36:21.572Z,8.70
2019-03-27T09:37:26.782Z,8.70
2019-03-27T09:38:31.946Z,8.70
2019-03-27T09:39:37.121Z,8.70
2019-03-27T09:40:42.377Z,8.70
2019-03-27T09:41:47.512Z,8.70
2019-03-27T09:42:52.664Z,8.70
2019-03-27T09:43:57.811Z,8.70
2019-03-27T09:45:03.109Z,8.80
2019-03-27T09:46:09.393Z,8.90
2019-03-27T09:47:15.100Z,9.00
2019-03-27T09:48:20.316Z,9.10
2019-03-27T09:49:25.511Z,9.10
2019-03-27T09:50:30.729Z,9.20
2019-03-27T09:51:35.953Z,9.20
2019-03-27T09:52:41.140Z,9.20
2019-03-27T09:53:46.334Z,9.20
2019-03-27T09:54:51.487Z,9.20
2019-03-27T09:55:57.773Z,9.20
2019-03-27T09:57:03.013Z,9.20
2019-03-27T09:58:08.175Z,9.30
2019-03-27T09:59:13.466Z,9.40
2019-03-27T10:00:28.215Z,9.60
2019-03-27T10:01:33.353Z,9.80
2019-03-27T10:02:38.547Z,9.90
2019-03-27T10:03:43.891Z,10.00
2019-03-27T10:04:49.005Z,10.20
2019-03-27T10:05:54.464Z,10.30
2019-03-27T10:06:59.592Z,10.30
2019-03-27T10:08:05.767Z,10.50
2019-03-27T10:09:10.955Z,10.50
2019-03-27T10:10:16.501Z,10.60
2019-03-27T10:11:23.871Z,10.60
2019-03-27T10:12:28.565Z,10.50
2019-03-27T10:13:33.947Z,10.40
2019-03-27T10:14:39.114Z,10.20
2019-03-27T10:15:44.366Z,10.00
2019-03-27T10:16:49.519Z,9.80
2019-03-27T10:17:54.697Z,9.80
2019-03-27T10:18:59.854Z,9.80
2019-03-27T10:20:05.663Z,9.80
2019-03-27T10:21:10.879Z,9.80
2019-03-27T10:22:16.055Z,9.90
2019-03-27T10:23:21.277Z,9.90
2019-03-27T10:24:26.523Z,9.80
2019-03-27T10:25:31.779Z,9.80
2019-03-27T10:26:37.126Z,9.80
2019-03-27T10:27:42.371Z,9.80
2019-03-27T10:28:47.583Z,9.70
2019-03-27T10:29:52.821Z,9.70
2019-03-27T10:30:58.009Z,9.70
2019-03-27T10:32:03.374Z,9.70
2019-03-27T10:33:08.724Z,9.70
2019-03-27T10:34:13.838Z,9.70
2019-03-27T10:35:18.995Z,9.60
2019-03-27T10:36:24.290Z,9.50
2019-03-27T10:37:29.431Z,9.50
2019-03-27T10:38:34.667Z,9.40
2019-03-27T10:39:39.838Z,9.40
2019-03-27T10:40:45.356Z,9.40
2019-03-27T10:41:50.536Z,9.40
2019-03-27T10:42:55.675Z,9.40
2019-03-27T10:44:00.827Z,9.50
2019-03-27T10:45:06.864Z,9.60
2019-03-27T10:46:13.025Z,9.70
2019-03-27T10:47:18.237Z,9.70
2019-03-27T10:48:24.354Z,9.80
2019-03-27T10:49:29.541Z,9.90
2019-03-27T10:50:34.853Z,9.90
2019-03-27T10:51:40.099Z,9.80
2019-03-27T10:52:45.316Z,9.90
2019-03-27T10:53:50.444Z,9.80
2019-03-27T10:54:55.648Z,9.80
2019-03-27T10:56:00.816Z,9.80
2019-03-27T10:57:06.003Z,9.70
2019-03-27T10:58:11.131Z,9.70
2019-03-27T10:59:16.464Z,9.60
2019-03-27T11:00:22.208Z,9.70
2019-03-27T11:01:27.438Z,9.70
2019-03-27T11:02:32.641Z,9.80
2019-03-27T11:03:37.735Z,9.80
2019-03-27T11:04:42.852Z,9.80
2019-03-27T11:05:48.023Z,9.80
2019-03-27T11:06:53.329Z,9.80
2019-03-27T11:07:58.601Z,9.80
2019-03-27T11:09:08.331Z,9.80
2019-03-27T11:10:13.606Z,9.80
2019-03-27T11:11:18.751Z,9.90
2019-03-27T11:12:23.933Z,9.80
2019-03-27T11:13:29.079Z,9.80
2019-03-27T11:14:38.079Z,9.80
2019-03-27T11:15:41.051Z,9.80
2019-03-27T11:16:46.232Z,9.80
2019-03-27T11:17:51.418Z,9.70
2019-03-27T11:18:57.730Z,9.70
2019-03-27T11:20:02.838Z,9.70
2019-03-27T11:21:07.991Z,9.70
2019-03-27T11:22:13.139Z,9.70
2019-03-27T11:23:18.390Z,9.70
2019-03-27T11:24:23.547Z,9.80
2019-03-27T11:25:28.684Z,9.80
2019-03-27T11:26:33.839Z,9.80
2019-03-27T11:27:38.995Z,9.80
2019-03-27T11:28:44.156Z,9.80
2019-03-27T11:29:49.292Z,9.80
2019-03-27T11:30:54.518Z,9.80
2019-03-27T11:31:59.649Z,9.70
2019-03-27T11:33:05.217Z,9.70
2019-03-27T11:34:10.463Z,9.70
2019-03-27T11:35:15.742Z,9.70
2019-03-27T11:36:21.904Z,9.70
2019-03-27T11:37:27.035Z,9.70
2019-03-27T11:38:33.178Z,9.70
2019-03-27T11:39:38.341Z,9.60
2019-03-27T11:40:43.862Z,9.70
2019-03-27T11:41:49.030Z,9.70
2019-03-27T11:42:54.181Z,9.70
2019-03-27T11:43:59.357Z,9.60
2019-03-27T11:45:05.319Z,9.60
2019-03-27T11:46:10.489Z,9.70
2019-03-27T11:47:15.710Z,9.70
2019-03-27T11:48:20.824Z,9.70
2019-03-27T11:49:26.035Z,9.70
2019-03-27T11:50:43.724Z,9.80
2019-03-27T11:51:38.083Z,9.80
2019-03-27T11:52:43.255Z,9.80
2019-03-27T11:53:48.418Z,9.80
2019-03-27T11:54:53.654Z,9.80
2019-03-27T11:55:58.773Z,9.70
2019-03-27T11:57:03.909Z,9.70
2019-03-27T11:58:09.229Z,9.80
2019-03-27T11:59:14.344Z,9.70
2019-03-27T12:00:19.659Z,9.70
2019-03-27T12:01:38.365Z,9.70
2019-03-27T12:02:31.786Z,9.70
2019-03-27T12:03:36.956Z,9.60
2019-03-27T12:04:42.100Z,9.60
2019-03-27T12:05:47.274Z,9.60
2019-03-27T12:06:52.431Z,9.60
2019-03-27T12:07:57.630Z,9.60
2019-03-27T12:09:04.511Z,9.60
2019-03-27T12:10:10.252Z,9.70
2019-03-27T12:11:15.567Z,9.70
2019-03-27T12:12:20.727Z,9.80
2019-03-27T12:13:25.884Z,9.90
2019-03-27T12:14:30.984Z,10.00
2019-03-27T12:15:39.723Z,10.10
2019-03-27T12:16:44.934Z,10.20
2019-03-27T12:17:50.060Z,10.20
2019-03-27T12:18:55.280Z,10.30
2019-03-27T12:20:00.496Z,10.40
2019-03-27T12:21:06.591Z,10.40
2019-03-27T12:22:11.745Z,10.50
2019-03-27T12:23:17.041Z,10.50
2019-03-27T12:24:22.307Z,10.50
2019-03-27T12:25:27.439Z,10.50
2019-03-27T12:26:32.614Z,10.50
2019-03-27T12:27:37.796Z,10.60
2019-03-27T12:28:42.974Z,10.70
2019-03-27T12:29:48.146Z,10.70
2019-03-27T12:30:53.251Z,10.80
2019-03-27T12:31:58.405Z,10.90
2019-03-27T12:33:03.551Z,10.80
2019-03-27T12:34:08.692Z,10.90
2019-03-27T12:35:13.921Z,10.90
2019-03-27T12:36:19.073Z,10.90
2019-03-27T12:37:24.336Z,11.00
2019-03-27T12:38:29.561Z,11.20
2019-03-27T12:39:34.790Z,11.20
2019-03-27T12:40:40.169Z,11.20
2019-03-27T12:41:45.330Z,11.10
2019-03-27T12:42:50.511Z,11.10
2019-03-27T12:43:55.812Z,11.00
2019-03-27T12:45:01.968Z,10.90
2019-03-27T12:46:07.504Z,10.90
2019-03-27T12:47:12.786Z,10.80
2019-03-27T12:48:18.003Z,10.80
2019-03-27T12:49:23.204Z,10.80
2019-03-27T12:50:28.359Z,10.80
2019-03-27T12:51:33.585Z,10.90
2019-03-27T12:52:38.751Z,11.00
2019-03-27T12:53:43.946Z,11.00
2019-03-27T12:54:49.112Z,11.10
2019-03-27T12:55:54.342Z,11.10
2019-03-27T12:57:00.000Z,11.20
2019-03-27T12:58:05.534Z,11.10
2019-03-27T12:59:10.749Z,11.10
2019-03-27T13:00:16.302Z,11.20
2019-03-27T13:01:21.451Z,11.20
2019-03-27T13:02:26.557Z,11.20
2019-03-27T13:03:31.761Z,11.10
2019-03-27T13:04:36.971Z,11.10
2019-03-27T13:05:42.162Z,11.10
2019-03-27T13:06:47.300Z,11.10
2019-03-27T13:07:52.460Z,11.00
2019-03-27T13:08:58.796Z,11.10
2019-03-27T13:10:04.458Z,11.10
2019-03-27T13:11:09.639Z,11.10
2019-03-27T13:12:14.761Z,11.10
2019-03-27T13:13:19.991Z,11.10
2019-03-27T13:14:25.103Z,11.10
2019-03-27T13:15:30.308Z,11.10
2019-03-27T13:16:35.489Z,11.10
2019-03-27T13:17:40.935Z,11.20
2019-03-27T13:18:46.113Z,11.10
2019-03-27T13:19:51.314Z,11.00
2019-03-27T13:20:56.544Z,11.10
2019-03-27T13:22:01.737Z,11.00
2019-03-27T13:23:06.844Z,11.00
2019-03-27T13:24:11.991Z,11.00
2019-03-27T13:25:17.249Z,11.00
2019-03-27T13:26:22.480Z,11.00
2019-03-27T13:27:27.623Z,11.00
2019-03-27T13:28:33.867Z,10.90
2019-03-27T13:29:39.095Z,10.90
2019-03-27T13:30:44.290Z,10.80
2019-03-27T13:31:49.477Z,10.70
2019-03-27T13:32:54.646Z,10.70
2019-03-27T13:33:59.963Z,10.60
2019-03-27T13:35:05.455Z,10.60
2019-03-27T13:36:10.752Z,10.50
2019-03-27T13:37:15.896Z,10.50
2019-03-27T13:38:21.160Z,10.50
2019-03-27T13:39:27.103Z,10.60
2019-03-27T13:40:32.399Z,10.60
2019-03-27T13:41:37.643Z,10.60
2019-03-27T13:42:42.804Z,10.60
2019-03-27T13:43:52.391Z,10.60
2019-03-27T13:44:57.593Z,10.70
2019-03-27T13:46:02.966Z,10.70
2019-03-27T13:47:08.184Z,10.70
2019-03-27T13:48:13.600Z,10.80
2019-03-27T13:49:18.771Z,10.70
2019-03-27T13:50:24.115Z,10.80
2019-03-27T13:51:40.633Z,10.80
2019-03-27T13:52:38.333Z,10.80
2019-03-27T13:53:43.496Z,10.70
2019-03-27T13:54:48.676Z,10.80
2019-03-27T13:55:53.818Z,10.70
2019-03-27T13:56:58.964Z,10.70
2019-03-27T13:58:04.256Z,10.70
2019-03-27T13:59:09.369Z,10.70
2019-03-27T14:00:15.938Z,10.70
2019-03-27T14:01:21.101Z,10.80
2019-03-27T14:02:26.244Z,10.80
2019-03-27T14:03:31.389Z,10.90
2019-03-27T14:04:36.536Z,11.00
2019-03-27T14:05:41.619Z,11.00
2019-03-27T14:06:46.829Z,10.90
2019-03-27T14:07:52.130Z,11.00
2019-03-27T14:08:57.256Z,11.00
2019-03-27T14:10:03.230Z,11.00
2019-03-27T14:11:08.472Z,11.00
2019-03-27T14:12:13.630Z,11.00
2019-03-27T14:13:18.860Z,11.00
2019-03-27T14:14:24.047Z,11.00
2019-03-27T14:15:29.349Z,11.00
2019-03-27T14:16:34.707Z,11.00
2019-03-27T14:17:40.074Z,10.90
2019-03-27T14:18:48.708Z,10.90
2019-03-27T14:19:52.269Z,10.90
2019-03-27T14:20:57.496Z,10.90
2019-03-27T14:22:02.794Z,10.80
2019-03-27T14:23:08.091Z,10.80
2019-03-27T14:24:13.235Z,10.80
2019-03-27T14:25:21.892Z,10.80
2019-03-27T14:26:26.069Z,10.70